createdAt,value
2018-11-25T00:00:55.015Z,87.79
2018-11-25T00:03:28.364Z,87.91
2018-11-25T00:06:01.758Z,87.68
2018-11-25T00:08:37.729Z,88.01
2018-11-25T00:11:11.130Z,88.42
2018-11-25T00:13:43.693Z,88.27
2018-11-25T00:16:16.341Z,88.44
2018-11-25T00:18:48.894Z,87.74
2018-11-25T00:21:21.523Z,87.78
2018-11-25T00:23:53.818Z,88.23
2018-11-25T00:26:26.522Z,88.83
2018-11-25T00:28:59.088Z,88.40
2018-11-25T00:31:31.679Z,88.78
2018-11-25T00:34:05.130Z,88.30
2018-11-25T00:36:37.458Z,87.92
2018-11-25T00:39:12.144Z,87.87
2018-11-25T00:41:44.513Z,87.82
2018-11-25T00:44:16.622Z,87.25
2018-11-25T00:46:48.763Z,87.52
2018-11-25T00:49:20.979Z,87.87
2018-11-25T00:51:53.447Z,88.12
2018-11-25T00:54:25.559Z,87.49
2018-11-25T00:56:57.669Z,88.05
2018-11-25T00:59:29.848Z,87.63
2018-11-25T01:02:04.283Z,88.30
2018-11-25T01:04:36.595Z,88.87
2018-11-25T01:07:08.926Z,88.54
2018-11-25T01:09:41.094Z,87.83
2018-11-25T01:12:13.188Z,89.42
2018-11-25T01:14:46.012Z,88.97
2018-11-25T01:17:18.961Z,88.40
2018-11-25T01:19:51.505Z,88.68
2018-11-25T01:22:23.620Z,87.61
2018-11-25T01:24:55.752Z,88.31
2018-11-25T01:27:28.864Z,87.99
2018-11-25T01:30:01.779Z,87.62
2018-11-25T01:32:34.034Z,87.35
2018-11-25T01:35:07.179Z,88.23
2018-11-25T01:37:39.318Z,88.49
2018-11-25T01:40:18.990Z,88.66
2018-11-25T01:42:51.185Z,88.73
2018-11-25T01:45:23.343Z,88.48
2018-11-25T01:47:56.003Z,88.71
2018-11-25T01:50:28.801Z,88.22
2018-11-25T01:53:01.143Z,87.90
2018-11-25T01:55:33.239Z,87.89
2018-11-25T01:58:05.641Z,88.48
2018-11-25T02:00:37.754Z,88.33
2018-11-25T02:03:09.882Z,88.33
2018-11-25T02:05:42.271Z,87.99
2018-11-25T02:08:14.450Z,87.60
2018-11-25T02:10:46.569Z,88.10
2018-11-25T02:13:18.838Z,87.83
2018-11-25T02:15:51.001Z,87.82
2018-11-25T02:18:22.966Z,87.68
2018-11-25T02:20:57.198Z,87.71
2018-11-25T02:23:29.276Z,87.95
2018-11-25T02:26:06.280Z,88.24
2018-11-25T02:28:38.929Z,88.24
2018-11-25T02:31:11.022Z,88.61
2018-11-25T02:33:43.827Z,88.86
2018-11-25T02:36:16.618Z,88.42
2018-11-25T02:38:49.231Z,87.92
2018-11-25T02:41:21.910Z,87.94
2018-11-25T02:43:54.102Z,87.46
2018-11-25T02:46:28.216Z,88.05
2018-11-25T02:49:00.260Z,87.81
2018-11-25T02:51:39.978Z,88.06
2018-11-25T02:54:12.021Z,88.74
2018-11-25T02:56:44.098Z,88.46
2018-11-25T02:59:16.105Z,88.36
2018-11-25T03:01:48.205Z,87.91
2018-11-25T03:04:22.358Z,87.39
2018-11-25T03:06:57.678Z,87.48
2018-11-25T03:09:29.868Z,87.29
2018-11-25T03:12:01.989Z,87.21
2018-11-25T03:14:34.062Z,87.65
2018-11-25T03:17:09.817Z,87.93
2018-11-25T03:19:44.528Z,87.46
2018-11-25T03:22:16.648Z,88.00
2018-11-25T03:24:48.806Z,87.84
2018-11-25T03:27:21.376Z,87.95
2018-11-25T03:29:54.248Z,87.73
2018-11-25T03:32:27.143Z,87.29
2018-11-25T03:34:59.167Z,87.38
2018-11-25T03:37:31.248Z,88.26
2018-11-25T03:40:03.324Z,88.01
2018-11-25T03:42:36.038Z,88.18
2018-11-25T03:45:11.186Z,87.65
2018-11-25T03:47:43.223Z,88.91
2018-11-25T03:50:16.206Z,87.81
2018-11-25T03:52:48.343Z,87.50
2018-11-25T03:55:21.285Z,87.39
2018-11-25T03:57:53.445Z,87.45
2018-11-25T04:00:26.257Z,88.27
2018-11-25T04:02:58.937Z,87.63
2018-11-25T04:05:30.977Z,88.00
2018-11-25T04:08:03.138Z,88.39
2018-11-25T04:10:36.121Z,88.16
2018-11-25T04:13:08.532Z,88.56
2018-11-25T04:15:40.513Z,89.69
2018-11-25T04:18:13.513Z,89.51
2018-11-25T04:20:45.601Z,90.33
2018-11-25T04:23:17.738Z,91.18
2018-11-25T04:25:49.824Z,91.67
2018-11-25T04:28:22.477Z,91.85
2018-11-25T04:30:55.105Z,92.01
2018-11-25T04:33:29.212Z,92.95
2018-11-25T04:36:01.338Z,93.53
2018-11-25T04:38:33.578Z,93.80
2018-11-25T04:41:06.193Z,93.58
2018-11-25T04:43:39.069Z,93.53
2018-11-25T04:46:17.247Z,92.50
2018-11-25T04:48:49.340Z,93.68
2018-11-25T04:51:21.803Z,93.56
2018-11-25T04:53:54.378Z,93.64
2018-11-25T04:56:26.455Z,93.83
2018-11-25T04:58:58.570Z,93.59
2018-11-25T05:01:30.658Z,92.88
2018-11-25T05:04:03.345Z,93.36
2018-11-25T05:06:36.353Z,93.15
2018-11-25T05:09:10.654Z,92.23
2018-11-25T05:11:42.746Z,91.34
2018-11-25T05:14:15.624Z,92.53
2018-11-25T05:16:48.280Z,92.91
2018-11-25T05:19:20.584Z,91.68
2018-11-25T05:21:52.770Z,91.87
2018-11-25T05:24:25.417Z,91.38
2018-11-25T05:26:58.540Z,90.74
2018-11-25T05:29:31.244Z,90.57
2018-11-25T05:32:04.750Z,89.67
2018-11-25T05:34:37.288Z,89.44
2018-11-25T05:37:09.403Z,90.59
2018-11-25T05:39:41.418Z,87.74
2018-11-25T05:42:14.179Z,88.70
2018-11-25T05:44:46.803Z,88.97
2018-11-25T05:47:21.857Z,90.09
2018-11-25T05:49:52.584Z,89.97
2018-11-25T05:52:24.756Z,88.31
2018-11-25T05:54:57.712Z,88.51
2018-11-25T05:57:30.263Z,89.28
2018-11-25T06:00:02.462Z,89.34
2018-11-25T06:02:34.432Z,89.67
2018-11-25T06:05:07.913Z,90.11
2018-11-25T06:07:40.710Z,90.47
2018-11-25T06:10:16.397Z,90.42
2018-11-25T06:12:48.463Z,89.22
2018-11-25T06:15:22.190Z,89.25
2018-11-25T06:17:54.957Z,90.33
2018-11-25T06:20:29.778Z,89.46
2018-11-25T06:23:01.871Z,89.50
2018-11-25T06:25:33.972Z,90.09
2018-11-25T06:28:06.102Z,90.60
2018-11-25T06:30:38.463Z,90.87
2018-11-25T06:33:11.461Z,90.79
2018-11-25T06:35:44.284Z,91.11
2018-11-25T06:38:16.807Z,91.45
2018-11-25T06:40:49.536Z,91.35
2018-11-25T06:43:21.622Z,90.94
2018-11-25T06:45:53.833Z,89.94
2018-11-25T06:48:25.899Z,90.63
2018-11-25T06:50:58.030Z,90.55
2018-11-25T06:53:30.131Z,90.09
2018-11-25T06:56:02.278Z,90.56
2018-11-25T06:58:34.466Z,89.25
2018-11-25T07:01:06.852Z,91.00
2018-11-25T07:03:39.224Z,91.01
2018-11-25T07:06:11.315Z,90.44
2018-11-25T07:08:43.603Z,90.62
2018-11-25T07:11:15.724Z,89.96
2018-11-25T07:13:48.107Z,89.16
2018-11-25T07:16:20.436Z,89.82
2018-11-25T07:18:53.306Z,90.38
2018-11-25T07:21:26.189Z,90.08
2018-11-25T07:24:00.709Z,90.76
2018-11-25T07:26:32.881Z,89.13
2018-11-25T07:29:05.036Z,89.52
2018-11-25T07:31:37.107Z,90.83
2018-11-25T07:34:10.026Z,89.75
2018-11-25T07:36:42.212Z,89.42
2018-11-25T07:39:15.022Z,90.44
2018-11-25T07:41:47.892Z,89.71
2018-11-25T07:44:20.378Z,89.63
2018-11-25T07:46:52.645Z,89.76
2018-11-25T07:49:24.789Z,88.92
2018-11-25T07:51:58.519Z,89.73
2018-11-25T07:54:31.447Z,90.41
2018-11-25T07:57:03.683Z,89.46
2018-11-25T07:59:35.738Z,89.56
2018-11-25T08:02:08.504Z,90.70
2018-11-25T08:04:41.513Z,91.14
2018-11-25T08:07:13.731Z,90.58
2018-11-25T08:09:46.148Z,89.73
2018-11-25T08:12:18.253Z,89.51
2018-11-25T08:14:51.006Z,90.11
2018-11-25T08:17:24.095Z,92.58
2018-11-25T08:19:56.985Z,91.54
2018-11-25T08:22:29.064Z,90.51
2018-11-25T08:25:02.084Z,90.67
2018-11-25T08:27:35.460Z,90.66
2018-11-25T08:30:16.009Z,90.07
2018-11-25T08:32:49.223Z,91.11
2018-11-25T08:35:21.855Z,91.35
2018-11-25T08:37:56.551Z,91.87
2018-11-25T08:40:29.529Z,91.53
2018-11-25T08:43:02.371Z,91.09
2018-11-25T08:45:35.848Z,91.75
2018-11-25T08:48:08.260Z,91.43
2018-11-25T08:50:40.565Z,91.22
2018-11-25T08:53:12.808Z,90.69
2018-11-25T08:55:45.715Z,90.33
2018-11-25T08:58:21.599Z,90.76
2018-11-25T09:00:59.937Z,89.80
2018-11-25T09:03:32.862Z,89.61
2018-11-25T09:06:06.336Z,89.47
2018-11-25T09:08:39.715Z,88.29
2018-11-25T09:11:12.448Z,90.54
2018-11-25T09:13:45.344Z,89.63
2018-11-25T09:16:19.293Z,89.64
2018-11-25T09:18:52.506Z,89.13
2018-11-25T09:21:28.369Z,89.26
2018-11-25T09:24:01.116Z,90.12
2018-11-25T09:26:33.559Z,90.21
2018-11-25T09:29:06.572Z,90.23
2018-11-25T09:31:38.829Z,89.36
2018-11-25T09:34:11.209Z,90.05
2018-11-25T09:36:44.460Z,90.22
2018-11-25T09:39:17.601Z,90.19
2018-11-25T09:41:51.161Z,89.94
2018-11-25T09:44:23.586Z,90.25
2018-11-25T09:46:56.013Z,89.39
2018-11-25T09:49:28.313Z,88.79
2018-11-25T09:52:00.908Z,89.07
2018-11-25T09:54:33.414Z,89.39
2018-11-25T09:57:05.484Z,90.23
2018-11-25T09:59:38.475Z,89.42
2018-11-25T10:02:11.422Z,90.92
2018-11-25T10:04:43.768Z,90.05
2018-11-25T10:07:15.900Z,90.15
2018-11-25T10:09:49.948Z,89.41
2018-11-25T10:12:22.035Z,90.27
2018-11-25T10:14:57.529Z,90.55
2018-11-25T10:17:30.371Z,90.35
2018-11-25T10:20:03.104Z,90.27
2018-11-25T10:22:35.938Z,89.62
2018-11-25T10:25:12.996Z,90.47
2018-11-25T10:27:45.142Z,90.25
2018-11-25T10:30:27.422Z,90.95
2018-11-25T10:33:04.255Z,91.22
2018-11-25T10:35:36.458Z,92.24
2018-11-25T10:38:08.986Z,92.05
2018-11-25T10:40:41.272Z,92.03
2018-11-25T10:43:14.340Z,92.12
2018-11-25T10:45:46.471Z,91.82
2018-11-25T10:48:22.282Z,91.76
2018-11-25T10:50:54.543Z,90.87
2018-11-25T10:53:26.720Z,91.54
2018-11-25T10:55:58.958Z,91.28
2018-11-25T10:58:31.171Z,90.85
2018-11-25T11:01:21.534Z,91.00
2018-11-25T11:03:57.206Z,90.79
2018-11-25T11:06:46.617Z,91.11
2018-11-25T11:09:18.645Z,91.41
2018-11-25T11:11:50.803Z,91.90
2018-11-25T11:14:22.853Z,91.95
2018-11-25T11:16:57.545Z,91.40
2018-11-25T11:19:29.631Z,91.39
2018-11-25T11:22:01.786Z,91.64
2018-11-25T11:24:34.003Z,92.17
2018-11-25T11:27:06.149Z,92.30
2018-11-25T11:29:38.362Z,93.14
2018-11-25T11:32:10.521Z,92.42
2018-11-25T11:34:42.679Z,91.34
2018-11-25T11:37:14.771Z,92.16
2018-11-25T11:39:46.897Z,92.81
2018-11-25T11:42:19.133Z,93.64
2018-11-25T11:44:51.377Z,91.70
2018-11-25T11:47:24.531Z,91.35
2018-11-25T11:49:57.079Z,91.48
2018-11-25T11:52:29.279Z,91.54
2018-11-25T11:55:01.370Z,91.95
2018-11-25T11:57:36.029Z,91.74
2018-11-25T12:00:30.509Z,91.82
2018-11-25T12:03:02.874Z,91.56
2018-11-25T12:05:35.007Z,91.86
2018-11-25T12:08:07.404Z,91.93
2018-11-25T12:10:39.551Z,92.00
2018-11-25T12:13:11.803Z,91.47
2018-11-25T12:15:43.954Z,91.03
2018-11-25T12:18:16.082Z,91.29
2018-11-25T12:20:48.189Z,92.08
2018-11-25T12:23:20.405Z,92.12
2018-11-25T12:25:52.545Z,91.97
2018-11-25T12:28:24.950Z,91.45
2018-11-25T12:30:57.040Z,90.86
2018-11-25T12:33:29.121Z,91.31
2018-11-25T12:36:01.224Z,91.30
2018-11-25T12:38:33.363Z,91.49
2018-11-25T12:41:05.423Z,90.94
2018-11-25T12:43:37.683Z,90.21
2018-11-25T12:46:09.755Z,90.48
2018-11-25T12:48:42.258Z,90.61
2018-11-25T12:51:14.355Z,91.29
2018-11-25T12:53:47.387Z,91.26
2018-11-25T12:56:19.607Z,90.87
2018-11-25T12:58:51.870Z,90.25
2018-11-25T13:01:23.980Z,90.41
2018-11-25T13:03:57.159Z,90.16
2018-11-25T13:06:30.167Z,90.56
2018-11-25T13:09:02.493Z,90.28
2018-11-25T13:11:35.879Z,89.72
2018-11-25T13:14:08.304Z,90.56
2018-11-25T13:16:40.722Z,90.17
2018-11-25T13:19:12.991Z,90.42
2018-11-25T13:21:45.078Z,89.99
2018-11-25T13:24:17.237Z,89.45
2018-11-25T13:26:49.646Z,89.43
2018-11-25T13:29:21.812Z,89.57
2018-11-25T13:31:57.359Z,90.87
2018-11-25T13:34:29.905Z,90.73
2018-11-25T13:37:02.038Z,90.87
2018-11-25T13:39:34.476Z,90.87
2018-11-25T13:42:06.686Z,91.73
2018-11-25T13:44:45.773Z,90.54
2018-11-25T13:47:17.913Z,90.72
2018-11-25T13:49:50.059Z,90.54
2018-11-25T13:52:22.016Z,90.63
2018-11-25T13:54:54.380Z,90.08
2018-11-25T13:57:26.456Z,91.36
2018-11-25T13:59:58.873Z,90.17
2018-11-25T14:02:31.086Z,91.84
2018-11-25T14:05:03.219Z,91.50
2018-11-25T14:07:35.414Z,90.56
2018-11-25T14:10:12.607Z,89.95
2018-11-25T14:12:44.699Z,90.43
2018-11-25T14:15:16.803Z,90.24
2018-11-25T14:17:48.924Z,90.73
2018-11-25T14:20:21.091Z,90.33
2018-11-25T14:22:53.201Z,89.82
2018-11-25T14:25:26.438Z,90.16
2018-11-25T14:28:18.024Z,90.08
2018-11-25T14:30:51.014Z,91.17
2018-11-25T14:33:23.092Z,90.19
2018-11-25T14:35:55.172Z,88.73
2018-11-25T14:38:27.232Z,89.34
2018-11-25T14:40:59.432Z,89.56
2018-11-25T14:43:31.649Z,89.95
2018-11-25T14:46:03.774Z,89.68
2018-11-25T14:48:35.845Z,89.02
2018-11-25T14:51:08.002Z,89.95
2018-11-25T14:53:40.068Z,89.93
2018-11-25T14:56:14.596Z,89.86
2018-11-25T14:58:46.780Z,89.85
2018-11-25T15:01:18.900Z,90.20
2018-11-25T15:03:53.439Z,89.98
2018-11-25T15:06:29.488Z,89.96
2018-11-25T15:08:58.593Z,90.64
2018-11-25T15:11:30.660Z,90.86
2018-11-25T15:14:02.705Z,90.57
2018-11-25T15:16:34.859Z,89.32
2018-11-25T15:19:07.828Z,89.94
2018-11-25T15:21:39.913Z,90.10
2018-11-25T15:24:12.012Z,90.04
2018-11-25T15:26:44.227Z,90.11
2018-11-25T15:29:16.388Z,89.73
2018-11-25T15:31:48.490Z,89.00
2018-11-25T15:34:20.598Z,88.62
2018-11-25T15:36:52.842Z,89.19
2018-11-25T15:39:24.933Z,88.78
2018-11-25T15:41:56.995Z,88.51
2018-11-25T15:44:29.073Z,89.61
2018-11-25T15:47:07.977Z,89.68
2018-11-25T15:49:34.193Z,89.17
2018-11-25T15:52:06.448Z,88.52
2018-11-25T15:54:38.508Z,89.15
2018-11-25T15:57:10.579Z,88.44
2018-11-25T15:59:42.644Z,89.31
2018-11-25T16:02:14.706Z,89.51
2018-11-25T16:04:46.887Z,89.48
2018-11-25T16:07:19.217Z,89.45
2018-11-25T16:09:51.263Z,89.55
2018-11-25T16:12:23.293Z,90.13
2018-11-25T16:14:56.237Z,90.18
2018-11-25T16:17:28.439Z,89.73
2018-11-25T16:20:00.572Z,89.79
2018-11-25T16:22:32.613Z,89.08
2018-11-25T16:25:05.038Z,89.13
2018-11-25T16:27:37.213Z,88.69
2018-11-25T16:30:12.628Z,88.44
2018-11-25T16:32:44.961Z,88.18
2018-11-25T16:35:17.057Z,87.95
2018-11-25T16:37:49.243Z,88.65
2018-11-25T16:40:21.457Z,89.80
2018-11-25T16:42:53.587Z,88.87
2018-11-25T16:45:25.858Z,88.85
2018-11-25T16:47:57.984Z,89.26
2018-11-25T16:50:30.037Z,88.41
2018-11-25T16:53:02.116Z,89.00
2018-11-25T16:55:34.163Z,88.84
2018-11-25T16:58:06.327Z,90.17
2018-11-25T17:00:38.496Z,90.07
2018-11-25T17:03:10.611Z,89.21
2018-11-25T17:05:48.107Z,89.12
2018-11-25T17:08:55.177Z,88.79
2018-11-25T17:11:27.186Z,87.54
2018-11-25T17:13:59.429Z,90.21
2018-11-25T17:16:31.547Z,90.20
2018-11-25T17:19:03.605Z,89.50
2018-11-25T17:21:35.720Z,88.89
2018-11-25T17:24:07.770Z,88.46
2018-11-25T17:26:40.003Z,89.75
2018-11-25T17:29:12.099Z,89.70
2018-11-25T17:31:44.315Z,89.94
2018-11-25T17:34:17.058Z,90.67
2018-11-25T17:36:49.127Z,89.52
2018-11-25T17:39:21.214Z,90.12
2018-11-25T17:41:53.352Z,89.72
2018-11-25T17:44:25.471Z,89.72
2018-11-25T17:46:57.831Z,90.92
2018-11-25T17:49:29.939Z,89.48
2018-11-25T17:52:02.051Z,89.92
2018-11-25T17:54:36.242Z,89.23
2018-11-25T17:57:08.304Z,89.86
2018-11-25T17:59:43.546Z,89.87
2018-11-25T18:02:15.610Z,90.33
2018-11-25T18:04:47.780Z,89.93
2018-11-25T18:07:19.815Z,90.25
2018-11-25T18:09:51.952Z,90.64
2018-11-25T18:12:24.032Z,90.25
2018-11-25T18:14:56.206Z,90.57
2018-11-25T18:17:28.274Z,89.16
2018-11-25T18:20:00.384Z,91.08
2018-11-25T18:22:33.332Z,90.56
2018-11-25T18:25:05.424Z,90.13
2018-11-25T18:27:37.523Z,89.16
2018-11-25T18:30:13.760Z,89.64
2018-11-25T18:32:46.661Z,87.67
2018-11-25T18:35:18.860Z,88.24
2018-11-25T18:37:51.873Z,88.38
2018-11-25T18:40:24.035Z,87.01
2018-11-25T18:42:56.085Z,88.88
2018-11-25T18:45:28.356Z,88.39
2018-11-25T18:48:17.184Z,88.77
2018-11-25T18:50:49.522Z,87.04
2018-11-25T18:53:21.493Z,87.32
2018-11-25T18:55:50.567Z,86.93
2018-11-25T18:58:25.381Z,87.15
2018-11-25T19:01:19.415Z,85.93
2018-11-25T19:03:52.059Z,86.43
2018-11-25T19:06:24.206Z,85.73
2018-11-25T19:08:56.514Z,87.18
2018-11-25T19:11:28.623Z,87.27
2018-11-25T19:14:00.788Z,87.51
2018-11-25T19:16:33.161Z,87.32
2018-11-25T19:19:05.208Z,88.17
2018-11-25T19:21:39.507Z,86.88
2018-11-25T19:24:11.850Z,87.09
2018-11-25T19:26:43.972Z,87.66
2018-11-25T19:29:16.015Z,88.37
2018-11-25T19:31:48.247Z,88.25
2018-11-25T19:34:20.371Z,87.56
2018-11-25T19:36:52.496Z,88.74
2018-11-25T19:39:24.680Z,87.93
2018-11-25T19:41:56.731Z,88.28
2018-11-25T19:44:28.792Z,87.86
2018-11-25T19:47:01.113Z,88.46
2018-11-25T19:49:33.206Z,88.30
2018-11-25T19:52:05.312Z,86.92
2018-11-25T19:54:37.374Z,86.71
2018-11-25T19:57:10.018Z,85.83
2018-11-25T19:59:44.869Z,85.83
2018-11-25T20:02:17.298Z,86.64
2018-11-25T20:04:49.384Z,88.09
2018-11-25T20:07:21.975Z,87.70
2018-11-25T20:09:54.167Z,87.95
2018-11-25T20:12:45.447Z,87.03
2018-11-25T20:15:20.661Z,87.71
2018-11-25T20:17:54.332Z,88.43
2018-11-25T20:20:30.828Z,88.09
2018-11-25T20:23:02.953Z,88.67
2018-11-25T20:25:35.289Z,88.39
2018-11-25T20:28:07.258Z,88.27
2018-11-25T20:30:39.320Z,87.28
2018-11-25T20:33:30.922Z,87.82
2018-11-25T20:36:03.031Z,87.56
2018-11-25T20:38:52.164Z,87.42
2018-11-25T20:41:24.369Z,86.94
2018-11-25T20:43:56.463Z,86.72
2018-11-25T20:46:45.898Z,87.81
2018-11-25T20:49:17.991Z,86.82
2018-11-25T20:52:07.617Z,89.23
2018-11-25T20:54:42.054Z,87.40
2018-11-25T20:57:14.995Z,87.56
2018-11-25T20:59:47.062Z,87.36
2018-11-25T21:02:20.418Z,88.95
2018-11-25T21:04:52.172Z,88.06
2018-11-25T21:07:24.255Z,88.59
2018-11-25T21:09:56.353Z,88.53
2018-11-25T21:12:28.431Z,88.52
2018-11-25T21:15:00.529Z,89.47
2018-11-25T21:17:32.507Z,88.70
2018-11-25T21:20:04.928Z,88.60
2018-11-25T21:22:37.043Z,88.63
2018-11-25T21:25:20.335Z,89.46
2018-11-25T21:27:53.382Z,89.30
2018-11-25T21:30:29.002Z,89.19
2018-11-25T21:33:01.337Z,88.60
2018-11-25T21:35:33.443Z,89.06
2018-11-25T21:38:05.507Z,89.63
2018-11-25T21:40:37.623Z,88.73
2018-11-25T21:43:09.697Z,88.51
2018-11-25T21:45:41.860Z,88.18
2018-11-25T21:48:14.012Z,87.81
2018-11-25T21:50:48.921Z,88.36
2018-11-25T21:53:21.030Z,89.10
2018-11-25T21:55:53.324Z,88.63
2018-11-25T21:58:28.749Z,88.07
2018-11-25T22:00:58.663Z,88.73
2018-11-25T22:03:30.744Z,87.65
2018-11-25T22:06:02.948Z,87.88
2018-11-25T22:08:34.996Z,88.58
2018-11-25T22:11:08.906Z,88.46
2018-11-25T22:13:40.950Z,87.98
2018-11-25T22:16:13.006Z,88.13
2018-11-25T22:18:45.050Z,88.33
2018-11-25T22:21:17.136Z,87.77
2018-11-25T22:23:49.185Z,88.71
2018-11-25T22:26:21.346Z,87.72
2018-11-25T22:28:53.480Z,88.21
2018-11-25T22:31:28.506Z,88.17
2018-11-25T22:34:00.603Z,88.83
2018-11-25T22:36:32.728Z,87.77
2018-11-25T22:39:05.974Z,88.15
2018-11-25T22:41:38.982Z,87.23
2018-11-25T22:44:10.951Z,87.73
2018-11-25T22:46:43.067Z,88.43
2018-11-25T22:49:15.117Z,87.27
2018-11-25T22:51:47.222Z,87.96
2018-11-25T22:54:19.363Z,87.36
2018-11-25T22:56:51.429Z,88.05
2018-11-25T22:59:23.484Z,86.72
2018-11-25T23:01:55.855Z,86.39
2018-11-25T23:05:21.725Z,86.81
2018-11-25T23:07:53.834Z,87.21
2018-11-25T23:10:26.187Z,88.13
2018-11-25T23:12:58.533Z,87.67
2018-11-25T23:15:30.931Z,87.18
2018-11-25T23:18:03.063Z,88.15
2018-11-25T23:20:37.931Z,88.23
2018-11-25T23:23:10.345Z,87.41
2018-11-25T23:25:42.425Z,87.15
2018-11-25T23:28:15.317Z,87.54
2018-11-25T23:30:47.365Z,87.68
2018-11-25T23:33:19.459Z,87.92
2018-11-25T23:35:51.503Z,88.02
2018-11-25T23:38:23.615Z,88.23
2018-11-25T23:40:55.674Z,87.73
2018-11-25T23:43:27.739Z,86.99
2018-11-25T23:45:59.797Z,87.58
2018-11-25T23:48:31.871Z,88.83
2018-11-25T23:51:03.922Z,89.26
2018-11-25T23:53:35.985Z,88.49
2018-11-25T23:56:08.098Z,88.35
2018-11-25T23:58:40.152Z,88.25
